sensor_id;sensor_type;location;lat;lon;timestamp;P1;durP1;ratioP1;P2;durP2;ratioP2
55879;SDS011;41802;51.564;-1.838;2023-06-26T00:00:01;10.95;;;2.78;;
55879;SDS011;41802;51.564;-1.838;2023-06-26T00:02:30;11.05;;;2.40;;
55879;SDS011;41802;51.564;-1.838;2023-06-26T00:04:59;10.18;;;2.33;;
55879;SDS011;41802;51.564;-1.838;2023-06-26T00:07:29;10.57;;;2.53;;
55879;SDS011;41802;51.564;-1.838;2023-06-26T00:09:57;8.98;;;2.60;;
55879;SDS011;41802;51.564;-1.838;2023-06-26T00:12:25;8.70;;;2.60;;
55879;SDS011;41802;51.564;-1.838;2023-06-26T00:14:54;8.93;;;2.40;;
55879;SDS011;41802;51.564;-1.838;2023-06-26T00:17:24;10.50;;;2.95;;
55879;SDS011;41802;51.564;-1.838;2023-06-26T00:19:52;10.30;;;2.70;;
55879;SDS011;41802;51.564;-1.838;2023-06-26T00:22:21;9.55;;;2.17;;
55879;SDS011;41802;51.564;-1.838;2023-06-26T00:24:48;9.85;;;2.20;;
55879;SDS011;41802;51.564;-1.838;2023-06-26T00:27:16;11.70;;;3.05;;
55879;SDS011;41802;51.564;-1.838;2023-06-26T00:29:44;11.15;;;2.70;;
55879;SDS011;41802;51.564;-1.838;2023-06-26T00:32:13;10.17;;;3.30;;
55879;SDS011;41802;51.564;-1.838;2023-06-26T00:34:41;8.23;;;2.40;;
55879;SDS011;41802;51.564;-1.838;2023-06-26T00:37:09;8.25;;;2.45;;
55879;SDS011;41802;51.564;-1.838;2023-06-26T00:39:37;9.73;;;2.20;;
55879;SDS011;41802;51.564;-1.838;2023-06-26T00:42:05;12.38;;;3.33;;
55879;SDS011;41802;51.564;-1.838;2023-06-26T00:44:34;11.57;;;3.10;;
55879;SDS011;41802;51.564;-1.838;2023-06-26T00:47:02;10.25;;;2.50;;
55879;SDS011;41802;51.564;-1.838;2023-06-26T00:49:31;8.88;;;2.72;;
55879;SDS011;41802;51.564;-1.838;2023-06-26T00:51:59;9.70;;;2.28;;
55879;SDS011;41802;51.564;-1.838;2023-06-26T00:54:27;7.53;;;2.50;;
55879;SDS011;41802;51.564;-1.838;2023-06-26T00:56:55;9.20;;;2.67;;
55879;SDS011;41802;51.564;-1.838;2023-06-26T00:59:23;14.63;;;2.75;;
55879;SDS011;41802;51.564;-1.838;2023-06-26T01:01:50;10.70;;;3.10;;
55879;SDS011;41802;51.564;-1.838;2023-06-26T01:04:18;10.60;;;2.25;;
55879;SDS011;41802;51.564;-1.838;2023-06-26T01:06:47;8.00;;;2.80;;
55879;SDS011;41802;51.564;-1.838;2023-06-26T01:09:16;11.40;;;2.77;;
55879;SDS011;41802;51.564;-1.838;2023-06-26T01:11:45;10.75;;;3.00;;
55879;SDS011;41802;51.564;-1.838;2023-06-26T01:14:13;11.75;;;2.80;;
55879;SDS011;41802;51.564;-1.838;2023-06-26T01:16:41;11.43;;;3.17;;
55879;SDS011;41802;51.564;-1.838;2023-06-26T01:19:19;10.70;;;2.85;;
55879;SDS011;41802;51.564;-1.838;2023-06-26T01:21:55;12.27;;;2.70;;
55879;SDS011;41802;51.564;-1.838;2023-06-26T01:24:25;10.20;;;2.70;;
55879;SDS011;41802;51.564;-1.838;2023-06-26T01:26:57;13.38;;;3.22;;
55879;SDS011;41802;51.564;-1.838;2023-06-26T01:29:26;10.15;;;2.60;;
55879;SDS011;41802;51.564;-1.838;2023-06-26T01:31:56;11.10;;;3.15;;
55879;SDS011;41802;51.564;-1.838;2023-06-26T01:34:25;10.13;;;2.30;;
55879;SDS011;41802;51.564;-1.838;2023-06-26T01:36:53;15.10;;;3.35;;
55879;SDS011;41802;51.564;-1.838;2023-06-26T01:39:21;8.68;;;2.88;;
55879;SDS011;41802;51.564;-1.838;2023-06-26T01:41:49;11.60;;;2.75;;
55879;SDS011;41802;51.564;-1.838;2023-06-26T01:44:23;9.05;;;2.67;;
55879;SDS011;41802;51.564;-1.838;2023-06-26T01:46:58;13.40;;;2.60;;
55879;SDS011;41802;51.564;-1.838;2023-06-26T01:49:31;7.75;;;2.53;;
55879;SDS011;41802;51.564;-1.838;2023-06-26T01:52:00;10.13;;;2.47;;
55879;SDS011;41802;51.564;-1.838;2023-06-26T01:54:30;9.52;;;3.00;;
55879;SDS011;41802;51.564;-1.838;2023-06-26T01:57:00;11.80;;;3.05;;
55879;SDS011;41802;51.564;-1.838;2023-06-26T01:59:33;9.73;;;2.50;;
55879;SDS011;41802;51.564;-1.838;2023-06-26T02:02:01;9.15;;;2.70;;
55879;SDS011;41802;51.564;-1.838;2023-06-26T02:04:29;10.73;;;2.75;;
55879;SDS011;41802;51.564;-1.838;2023-06-26T02:06:56;8.75;;;2.58;;
55879;SDS011;41802;51.564;-1.838;2023-06-26T02:09:24;8.93;;;2.70;;
55879;SDS011;41802;51.564;-1.838;2023-06-26T02:11:52;11.57;;;3.20;;
55879;SDS011;41802;51.564;-1.838;2023-06-26T02:14:20;8.93;;;3.22;;
55879;SDS011;41802;51.564;-1.838;2023-06-26T02:16:49;13.00;;;3.13;;
55879;SDS011;41802;51.564;-1.838;2023-06-26T02:19:17;17.52;;;3.47;;
55879;SDS011;41802;51.564;-1.838;2023-06-26T02:21:48;8.18;;;2.65;;
55879;SDS011;41802;51.564;-1.838;2023-06-26T02:24:16;8.80;;;2.30;;
55879;SDS011;41802;51.564;-1.838;2023-06-26T02:26:44;11.10;;;2.97;;
55879;SDS011;41802;51.564;-1.838;2023-06-26T02:29:12;10.75;;;2.33;;
55879;SDS011;41802;51.564;-1.838;2023-06-26T02:31:42;10.20;;;2.50;;
55879;SDS011;41802;51.564;-1.838;2023-06-26T02:34:11;14.50;;;2.75;;
55879;SDS011;41802;51.564;-1.838;2023-06-26T02:36:39;8.10;;;3.00;;
55879;SDS011;41802;51.564;-1.838;2023-06-26T02:39:07;13.52;;;3.35;;
55879;SDS011;41802;51.564;-1.838;2023-06-26T02:41:35;9.10;;;2.42;;
55879;SDS011;41802;51.564;-1.838;2023-06-26T02:44:02;12.32;;;3.63;;
55879;SDS011;41802;51.564;-1.838;2023-06-26T02:46:30;14.05;;;2.33;;
55879;SDS011;41802;51.564;-1.838;2023-06-26T02:48:58;10.70;;;2.60;;
55879;SDS011;41802;51.564;-1.838;2023-06-26T02:51:27;10.32;;;2.47;;
55879;SDS011;41802;51.564;-1.838;2023-06-26T02:53:55;10.30;;;2.42;;
55879;SDS011;41802;51.564;-1.838;2023-06-26T02:56:23;12.85;;;3.50;;
55879;SDS011;41802;51.564;-1.838;2023-06-26T02:58:55;8.95;;;2.60;;
55879;SDS011;41802;51.564;-1.838;2023-06-26T03:01:23;7.33;;;2.10;;
55879;SDS011;41802;51.564;-1.838;2023-06-26T03:03:50;13.55;;;2.55;;
55879;SDS011;41802;51.564;-1.838;2023-06-26T03:06:19;7.93;;;2.42;;
55879;SDS011;41802;51.564;-1.838;2023-06-26T03:08:48;10.02;;;2.13;;
55879;SDS011;41802;51.564;-1.838;2023-06-26T03:11:16;9.57;;;2.28;;
55879;SDS011;41802;51.564;-1.838;2023-06-26T03:13:44;11.67;;;2.43;;
55879;SDS011;41802;51.564;-1.838;2023-06-26T03:16:11;11.90;;;2.25;;
55879;SDS011;41802;51.564;-1.838;2023-06-26T03:18:39;11.15;;;2.58;;
55879;SDS011;41802;51.564;-1.838;2023-06-26T03:21:07;11.82;;;2.08;;
55879;SDS011;41802;51.564;-1.838;2023-06-26T03:23:38;12.77;;;2.97;;
55879;SDS011;41802;51.564;-1.838;2023-06-26T03:26:07;12.60;;;2.03;;
55879;SDS011;41802;51.564;-1.838;2023-06-26T03:28:35;10.65;;;2.33;;
55879;SDS011;41802;51.564;-1.838;2023-06-26T03:31:03;14.75;;;2.47;;
55879;SDS011;41802;51.564;-1.838;2023-06-26T03:33:31;10.13;;;2.10;;
55879;SDS011;41802;51.564;-1.838;2023-06-26T03:35:59;7.18;;;2.03;;
55879;SDS011;41802;51.564;-1.838;2023-06-26T03:38:26;13.80;;;2.47;;
55879;SDS011;41802;51.564;-1.838;2023-06-26T03:40:54;11.27;;;2.30;;
55879;SDS011;41802;51.564;-1.838;2023-06-26T03:43:23;11.25;;;2.22;;
55879;SDS011;41802;51.564;-1.838;2023-06-26T03:45:51;14.50;;;2.55;;
55879;SDS011;41802;51.564;-1.838;2023-06-26T03:48:18;11.77;;;2.25;;
55879;SDS011;41802;51.564;-1.838;2023-06-26T03:50:46;11.13;;;2.30;;
55879;SDS011;41802;51.564;-1.838;2023-06-26T03:53:14;11.73;;;1.70;;
55879;SDS011;41802;51.564;-1.838;2023-06-26T03:55:41;10.50;;;2.13;;
55879;SDS011;41802;51.564;-1.838;2023-06-26T03:58:09;13.38;;;2.17;;
55879;SDS011;41802;51.564;-1.838;2023-06-26T04:00:39;13.52;;;2.00;;
55879;SDS011;41802;51.564;-1.838;2023-06-26T04:03:07;10.53;;;2.20;;
55879;SDS011;41802;51.564;-1.838;2023-06-26T04:05:35;7.53;;;1.85;;
55879;SDS011;41802;51.564;-1.838;2023-06-26T04:08:03;11.18;;;2.20;;
55879;SDS011;41802;51.564;-1.838;2023-06-26T04:10:31;15.45;;;3.28;;
55879;SDS011;41802;51.564;-1.838;2023-06-26T04:12:59;9.07;;;2.30;;
55879;SDS011;41802;51.564;-1.838;2023-06-26T04:15:26;15.13;;;2.10;;
55879;SDS011;41802;51.564;-1.838;2023-06-26T04:17:55;11.27;;;2.08;;
55879;SDS011;41802;51.564;-1.838;2023-06-26T04:20:24;14.52;;;2.55;;
55879;SDS011;41802;51.564;-1.838;2023-06-26T04:22:51;13.07;;;2.20;;
55879;SDS011;41802;51.564;-1.838;2023-06-26T04:25:19;9.90;;;2.40;;
55879;SDS011;41802;51.564;-1.838;2023-06-26T04:27:47;10.53;;;2.00;;
55879;SDS011;41802;51.564;-1.838;2023-06-26T04:30:15;16.73;;;2.60;;
55879;SDS011;41802;51.564;-1.838;2023-06-26T04:32:43;12.98;;;2.03;;
55879;SDS011;41802;51.564;-1.838;2023-06-26T04:35:12;13.73;;;2.15;;
55879;SDS011;41802;51.564;-1.838;2023-06-26T04:37:40;10.23;;;2.13;;
55879;SDS011;41802;51.564;-1.838;2023-06-26T04:40:08;11.83;;;2.13;;
55879;SDS011;41802;51.564;-1.838;2023-06-26T04:42:37;11.98;;;1.75;;
55879;SDS011;41802;51.564;-1.838;2023-06-26T04:45:05;12.77;;;2.13;;
55879;SDS011;41802;51.564;-1.838;2023-06-26T04:47:33;11.88;;;2.20;;
55879;SDS011;41802;51.564;-1.838;2023-06-26T04:50:01;12.63;;;2.40;;
55879;SDS011;41802;51.564;-1.838;2023-06-26T04:52:30;12.83;;;2.33;;
55879;SDS011;41802;51.564;-1.838;2023-06-26T04:54:58;13.55;;;2.45;;
55879;SDS011;41802;51.564;-1.838;2023-06-26T04:57:25;11.35;;;2.55;;
55879;SDS011;41802;51.564;-1.838;2023-06-26T04:59:53;12.25;;;3.20;;
55879;SDS011;41802;51.564;-1.838;2023-06-26T05:02:21;11.73;;;2.45;;
55879;SDS011;41802;51.564;-1.838;2023-06-26T05:04:50;16.17;;;2.67;;
55879;SDS011;41802;51.564;-1.838;2023-06-26T05:07:18;13.20;;;1.98;;
55879;SDS011;41802;51.564;-1.838;2023-06-26T05:09:47;12.63;;;2.53;;
55879;SDS011;41802;51.564;-1.838;2023-06-26T05:12:15;10.60;;;2.53;;
55879;SDS011;41802;51.564;-1.838;2023-06-26T05:14:43;14.07;;;2.55;;
55879;SDS011;41802;51.564;-1.838;2023-06-26T05:17:10;12.63;;;1.97;;
55879;SDS011;41802;51.564;-1.838;2023-06-26T05:19:38;13.07;;;1.90;;
55879;SDS011;41802;51.564;-1.838;2023-06-26T05:22:06;12.10;;;1.98;;
55879;SDS011;41802;51.564;-1.838;2023-06-26T05:24:34;12.60;;;2.28;;
55879;SDS011;41802;51.564;-1.838;2023-06-26T05:27:04;11.82;;;2.47;;
55879;SDS011;41802;51.564;-1.838;2023-06-26T05:29:32;14.87;;;3.00;;
55879;SDS011;41802;51.564;-1.838;2023-06-26T05:32:04;9.35;;;2.30;;
55879;SDS011;41802;51.564;-1.838;2023-06-26T05:34:32;7.38;;;1.60;;
55879;SDS011;41802;51.564;-1.838;2023-06-26T05:37:00;12.43;;;2.55;;
55879;SDS011;41802;51.564;-1.838;2023-06-26T05:39:29;13.32;;;2.60;;
55879;SDS011;41802;51.564;-1.838;2023-06-26T05:41:57;8.77;;;2.20;;
55879;SDS011;41802;51.564;-1.838;2023-06-26T05:44:26;11.77;;;2.45;;
55879;SDS011;41802;51.564;-1.838;2023-06-26T05:46:54;11.48;;;2.35;;
55879;SDS011;41802;51.564;-1.838;2023-06-26T05:49:23;9.15;;;2.35;;
55879;SDS011;41802;51.564;-1.838;2023-06-26T05:51:50;9.63;;;2.30;;
55879;SDS011;41802;51.564;-1.838;2023-06-26T05:54:18;11.33;;;2.53;;
55879;SDS011;41802;51.564;-1.838;2023-06-26T05:56:46;9.00;;;2.00;;
55879;SDS011;41802;51.564;-1.838;2023-06-26T05:59:16;14.63;;;2.42;;
55879;SDS011;41802;51.564;-1.838;2023-06-26T06:01:46;8.50;;;1.70;;
55879;SDS011;41802;51.564;-1.838;2023-06-26T06:04:13;22.48;;;2.50;;
55879;SDS011;41802;51.564;-1.838;2023-06-26T06:06:41;16.43;;;2.57;;
55879;SDS011;41802;51.564;-1.838;2023-06-26T06:09:09;10.57;;;1.85;;
55879;SDS011;41802;51.564;-1.838;2023-06-26T06:11:37;21.85;;;2.63;;
55879;SDS011;41802;51.564;-1.838;2023-06-26T06:14:04;10.68;;;1.95;;
55879;SDS011;41802;51.564;-1.838;2023-06-26T06:16:32;8.52;;;2.63;;
55879;SDS011;41802;51.564;-1.838;2023-06-26T06:19:01;9.00;;;2.13;;
55879;SDS011;41802;51.564;-1.838;2023-06-26T06:21:30;9.95;;;2.38;;
55879;SDS011;41802;51.564;-1.838;2023-06-26T06:23:58;9.10;;;2.17;;
55879;SDS011;41802;51.564;-1.838;2023-06-26T06:26:27;11.15;;;2.00;;
55879;SDS011;41802;51.564;-1.838;2023-06-26T06:28:55;8.38;;;1.95;;
55879;SDS011;41802;51.564;-1.838;2023-06-26T06:31:24;7.93;;;1.93;;
55879;SDS011;41802;51.564;-1.838;2023-06-26T06:33:53;7.50;;;1.85;;
55879;SDS011;41802;51.564;-1.838;2023-06-26T06:36:22;12.25;;;2.15;;
55879;SDS011;41802;51.564;-1.838;2023-06-26T06:38:50;9.55;;;2.05;;
55879;SDS011;41802;51.564;-1.838;2023-06-26T06:43:46;7.00;;;1.70;;
55879;SDS011;41802;51.564;-1.838;2023-06-26T06:46:14;11.15;;;1.60;;
55879;SDS011;41802;51.564;-1.838;2023-06-26T06:48:41;9.32;;;1.90;;
55879;SDS011;41802;51.564;-1.838;2023-06-26T06:51:11;9.20;;;1.90;;
55879;SDS011;41802;51.564;-1.838;2023-06-26T06:53:43;7.38;;;1.83;;
55879;SDS011;41802;51.564;-1.838;2023-06-26T06:56:10;8.67;;;2.17;;
55879;SDS011;41802;51.564;-1.838;2023-06-26T06:58:38;7.32;;;1.85;;
55879;SDS011;41802;51.564;-1.838;2023-06-26T07:01:09;7.10;;;1.38;;
55879;SDS011;41802;51.564;-1.838;2023-06-26T07:03:37;8.93;;;1.70;;
55879;SDS011;41802;51.564;-1.838;2023-06-26T07:06:05;9.07;;;1.88;;
55879;SDS011;41802;51.564;-1.838;2023-06-26T07:08:33;6.67;;;1.57;;
55879;SDS011;41802;51.564;-1.838;2023-06-26T07:11:02;9.40;;;1.77;;
55879;SDS011;41802;51.564;-1.838;2023-06-26T07:13:31;5.88;;;1.80;;
55879;SDS011;41802;51.564;-1.838;2023-06-26T07:15:59;7.43;;;1.35;;
55879;SDS011;41802;51.564;-1.838;2023-06-26T07:18:28;5.03;;;1.23;;
55879;SDS011;41802;51.564;-1.838;2023-06-26T07:20:57;7.83;;;1.83;;
55879;SDS011;41802;51.564;-1.838;2023-06-26T07:23:25;7.88;;;1.80;;
55879;SDS011;41802;51.564;-1.838;2023-06-26T07:25:53;6.05;;;1.00;;
55879;SDS011;41802;51.564;-1.838;2023-06-26T07:28:22;6.18;;;1.38;;
55879;SDS011;41802;51.564;-1.838;2023-06-26T07:30:50;6.20;;;1.38;;
55879;SDS011;41802;51.564;-1.838;2023-06-26T07:33:18;6.77;;;1.30;;
55879;SDS011;41802;51.564;-1.838;2023-06-26T07:35:48;7.32;;;1.50;;
55879;SDS011;41802;51.564;-1.838;2023-06-26T07:38:18;8.10;;;1.75;;
55879;SDS011;41802;51.564;-1.838;2023-06-26T07:40:46;8.73;;;1.60;;
55879;SDS011;41802;51.564;-1.838;2023-06-26T07:43:14;5.50;;;1.48;;
55879;SDS011;41802;51.564;-1.838;2023-06-26T07:45:43;7.33;;;1.50;;
55879;SDS011;41802;51.564;-1.838;2023-06-26T07:48:11;9.38;;;1.73;;
55879;SDS011;41802;51.564;-1.838;2023-06-26T07:50:39;7.15;;;1.77;;
55879;SDS011;41802;51.564;-1.838;2023-06-26T07:53:07;6.00;;;1.30;;
55879;SDS011;41802;51.564;-1.838;2023-06-26T07:55:35;5.20;;;1.80;;
55879;SDS011;41802;51.564;-1.838;2023-06-26T07:58:02;7.73;;;1.40;;
55879;SDS011;41802;51.564;-1.838;2023-06-26T08:00:34;7.50;;;1.50;;
55879;SDS011;41802;51.564;-1.838;2023-06-26T08:03:04;8.00;;;1.58;;
55879;SDS011;41802;51.564;-1.838;2023-06-26T08:05:38;7.20;;;1.48;;
55879;SDS011;41802;51.564;-1.838;2023-06-26T08:08:06;7.72;;;1.80;;
55879;SDS011;41802;51.564;-1.838;2023-06-26T08:10:33;8.33;;;1.60;;
55879;SDS011;41802;51.564;-1.838;2023-06-26T08:13:01;6.72;;;1.10;;
55879;SDS011;41802;51.564;-1.838;2023-06-26T08:15:30;7.75;;;1.42;;
55879;SDS011;41802;51.564;-1.838;2023-06-26T08:17:58;4.10;;;1.05;;
55879;SDS011;41802;51.564;-1.838;2023-06-26T08:20:27;4.95;;;1.35;;
55879;SDS011;41802;51.564;-1.838;2023-06-26T08:22:56;5.87;;;1.20;;
55879;SDS011;41802;51.564;-1.838;2023-06-26T08:25:24;6.35;;;1.20;;
55879;SDS011;41802;51.564;-1.838;2023-06-26T08:27:52;7.28;;;1.52;;
55879;SDS011;41802;51.564;-1.838;2023-06-26T08:30:24;5.53;;;1.25;;
55879;SDS011;41802;51.564;-1.838;2023-06-26T08:32:54;9.13;;;1.73;;
55879;SDS011;41802;51.564;-1.838;2023-06-26T08:35:23;6.67;;;1.60;;
55879;SDS011;41802;51.564;-1.838;2023-06-26T08:37:52;5.00;;;1.60;;
55879;SDS011;41802;51.564;-1.838;2023-06-26T08:40:21;6.47;;;1.60;;
55879;SDS011;41802;51.564;-1.838;2023-06-26T08:42:49;7.60;;;1.70;;
55879;SDS011;41802;51.564;-1.838;2023-06-26T08:45:19;6.57;;;1.73;;
55879;SDS011;41802;51.564;-1.838;2023-06-26T08:47:48;8.03;;;1.63;;
55879;SDS011;41802;51.564;-1.838;2023-06-26T08:50:19;8.70;;;1.60;;
55879;SDS011;41802;51.564;-1.838;2023-06-26T08:52:49;5.18;;;1.40;;
55879;SDS011;41802;51.564;-1.838;2023-06-26T08:55:22;11.48;;;1.85;;
55879;SDS011;41802;51.564;-1.838;2023-06-26T08:57:50;6.70;;;1.58;;
55879;SDS011;41802;51.564;-1.838;2023-06-26T09:00:19;8.40;;;2.33;;
55879;SDS011;41802;51.564;-1.838;2023-06-26T09:02:47;5.05;;;1.38;;
55879;SDS011;41802;51.564;-1.838;2023-06-26T09:05:15;5.20;;;1.48;;
55879;SDS011;41802;51.564;-1.838;2023-06-26T09:07:43;7.53;;;1.75;;
55879;SDS011;41802;51.564;-1.838;2023-06-26T09:10:11;7.15;;;1.60;;
55879;SDS011;41802;51.564;-1.838;2023-06-26T09:12:40;7.63;;;1.60;;
55879;SDS011;41802;51.564;-1.838;2023-06-26T09:15:08;4.85;;;1.15;;
55879;SDS011;41802;51.564;-1.838;2023-06-26T09:17:39;6.63;;;1.42;;
55879;SDS011;41802;51.564;-1.838;2023-06-26T09:20:08;6.00;;;1.55;;
55879;SDS011;41802;51.564;-1.838;2023-06-26T09:22:37;9.25;;;1.40;;
55879;SDS011;41802;51.564;-1.838;2023-06-26T09:25:06;11.57;;;2.00;;
55879;SDS011;41802;51.564;-1.838;2023-06-26T09:27:33;5.47;;;1.20;;
55879;SDS011;41802;51.564;-1.838;2023-06-26T09:30:03;5.78;;;1.13;;
55879;SDS011;41802;51.564;-1.838;2023-06-26T09:32:33;9.75;;;1.52;;
55879;SDS011;41802;51.564;-1.838;2023-06-26T09:35:02;6.00;;;1.23;;
55879;SDS011;41802;51.564;-1.838;2023-06-26T09:37:30;6.67;;;1.67;;
55879;SDS011;41802;51.564;-1.838;2023-06-26T09:39:58;6.18;;;1.70;;
55879;SDS011;41802;51.564;-1.838;2023-06-26T09:42:26;5.43;;;1.80;;
55879;SDS011;41802;51.564;-1.838;2023-06-26T09:44:54;7.43;;;1.63;;
55879;SDS011;41802;51.564;-1.838;2023-06-26T09:47:23;7.50;;;1.50;;
55879;SDS011;41802;51.564;-1.838;2023-06-26T09:49:53;5.57;;;1.17;;
55879;SDS011;41802;51.564;-1.838;2023-06-26T09:52:21;7.22;;;2.15;;
55879;SDS011;41802;51.564;-1.838;2023-06-26T09:54:49;7.03;;;1.42;;
55879;SDS011;41802;51.564;-1.838;2023-06-26T09:57:18;7.60;;;1.80;;
55879;SDS011;41802;51.564;-1.838;2023-06-26T09:59:47;7.65;;;1.83;;
55879;SDS011;41802;51.564;-1.838;2023-06-26T10:02:15;6.73;;;1.63;;
55879;SDS011;41802;51.564;-1.838;2023-06-26T10:04:45;5.40;;;1.67;;
55879;SDS011;41802;51.564;-1.838;2023-06-26T10:07:12;6.88;;;1.67;;
55879;SDS011;41802;51.564;-1.838;2023-06-26T10:09:41;6.13;;;1.70;;
55879;SDS011;41802;51.564;-1.838;2023-06-26T10:12:11;10.93;;;1.90;;
55879;SDS011;41802;51.564;-1.838;2023-06-26T10:14:42;6.30;;;1.63;;
55879;SDS011;41802;51.564;-1.838;2023-06-26T10:17:18;8.70;;;2.15;;
55879;SDS011;41802;51.564;-1.838;2023-06-26T10:19:48;6.05;;;1.75;;
55879;SDS011;41802;51.564;-1.838;2023-06-26T10:22:17;7.43;;;1.33;;
55879;SDS011;41802;51.564;-1.838;2023-06-26T10:24:46;7.28;;;1.58;;
55879;SDS011;41802;51.564;-1.838;2023-06-26T10:27:16;4.83;;;1.50;;
55879;SDS011;41802;51.564;-1.838;2023-06-26T10:29:45;7.25;;;1.65;;
55879;SDS011;41802;51.564;-1.838;2023-06-26T10:32:16;5.90;;;1.70;;
55879;SDS011;41802;51.564;-1.838;2023-06-26T10:34:44;5.47;;;1.48;;
55879;SDS011;41802;51.564;-1.838;2023-06-26T10:37:13;7.03;;;1.60;;
55879;SDS011;41802;51.564;-1.838;2023-06-26T10:39:48;7.27;;;2.20;;
55879;SDS011;41802;51.564;-1.838;2023-06-26T10:42:17;5.78;;;1.40;;
55879;SDS011;41802;51.564;-1.838;2023-06-26T10:44:46;4.25;;;1.63;;
55879;SDS011;41802;51.564;-1.838;2023-06-26T10:47:28;6.15;;;1.70;;
55879;SDS011;41802;51.564;-1.838;2023-06-26T10:49:56;6.38;;;1.70;;
55879;SDS011;41802;51.564;-1.838;2023-06-26T10:52:40;7.13;;;1.80;;
55879;SDS011;41802;51.564;-1.838;2023-06-26T10:55:08;9.43;;;2.00;;
55879;SDS011;41802;51.564;-1.838;2023-06-26T10:57:37;6.50;;;1.73;;
55879;SDS011;41802;51.564;-1.838;2023-06-26T11:00:09;8.95;;;2.05;;
55879;SDS011;41802;51.564;-1.838;2023-06-26T11:02:50;7.82;;;1.85;;
55879;SDS011;41802;51.564;-1.838;2023-06-26T11:05:27;5.43;;;1.20;;
55879;SDS011;41802;51.564;-1.838;2023-06-26T11:08:04;6.40;;;1.48;;
55879;SDS011;41802;51.564;-1.838;2023-06-26T11:10:50;7.05;;;1.83;;
55879;SDS011;41802;51.564;-1.838;2023-06-26T11:13:20;7.15;;;1.80;;
55879;SDS011;41802;51.564;-1.838;2023-06-26T11:15:49;5.82;;;1.58;;
55879;SDS011;41802;51.564;-1.838;2023-06-26T11:18:18;6.33;;;1.90;;
55879;SDS011;41802;51.564;-1.838;2023-06-26T11:20:46;5.07;;;1.63;;
55879;SDS011;41802;51.564;-1.838;2023-06-26T11:23:15;6.20;;;1.75;;
55879;SDS011;41802;51.564;-1.838;2023-06-26T11:25:49;5.97;;;1.50;;
55879;SDS011;41802;51.564;-1.838;2023-06-26T11:28:16;7.22;;;1.60;;
55879;SDS011;41802;51.564;-1.838;2023-06-26T11:30:44;6.40;;;1.60;;
55879;SDS011;41802;51.564;-1.838;2023-06-26T11:33:12;5.15;;;1.42;;
55879;SDS011;41802;51.564;-1.838;2023-06-26T11:35:40;6.28;;;1.60;;
55879;SDS011;41802;51.564;-1.838;2023-06-26T11:38:07;7.40;;;1.90;;
55879;SDS011;41802;51.564;-1.838;2023-06-26T11:40:37;8.23;;;1.45;;
55879;SDS011;41802;51.564;-1.838;2023-06-26T11:43:05;4.30;;;1.30;;
55879;SDS011;41802;51.564;-1.838;2023-06-26T11:45:37;9.23;;;1.48;;
55879;SDS011;41802;51.564;-1.838;2023-06-26T11:48:07;6.13;;;1.60;;
55879;SDS011;41802;51.564;-1.838;2023-06-26T11:50:36;7.57;;;1.73;;
55879;SDS011;41802;51.564;-1.838;2023-06-26T11:53:04;6.65;;;1.83;;
55879;SDS011;41802;51.564;-1.838;2023-06-26T11:55:41;8.43;;;1.70;;
55879;SDS011;41802;51.564;-1.838;2023-06-26T11:58:09;7.75;;;2.15;;
55879;SDS011;41802;51.564;-1.838;2023-06-26T12:00:41;7.32;;;1.50;;
55879;SDS011;41802;51.564;-1.838;2023-06-26T12:03:10;7.97;;;2.33;;
55879;SDS011;41802;51.564;-1.838;2023-06-26T12:05:38;4.97;;;1.40;;
55879;SDS011;41802;51.564;-1.838;2023-06-26T12:08:06;7.30;;;1.70;;
55879;SDS011;41802;51.564;-1.838;2023-06-26T12:10:53;5.78;;;1.42;;
55879;SDS011;41802;51.564;-1.838;2023-06-26T12:13:21;6.53;;;2.25;;
55879;SDS011;41802;51.564;-1.838;2023-06-26T12:15:49;6.63;;;1.80;;
55879;SDS011;41802;51.564;-1.838;2023-06-26T12:18:17;7.00;;;2.00;;
55879;SDS011;41802;51.564;-1.838;2023-06-26T12:20:47;8.00;;;1.60;;
55879;SDS011;41802;51.564;-1.838;2023-06-26T12:23:14;5.90;;;1.33;;
55879;SDS011;41802;51.564;-1.838;2023-06-26T12:25:42;4.90;;;1.58;;
55879;SDS011;41802;51.564;-1.838;2023-06-26T12:28:20;8.70;;;1.80;;
55879;SDS011;41802;51.564;-1.838;2023-06-26T12:33:31;5.93;;;1.90;;
55879;SDS011;41802;51.564;-1.838;2023-06-26T12:35:59;5.55;;;1.50;;
55879;SDS011;41802;51.564;-1.838;2023-06-26T12:38:32;6.78;;;1.60;;
55879;SDS011;41802;51.564;-1.838;2023-06-26T12:41:00;6.07;;;1.50;;
55879;SDS011;41802;51.564;-1.838;2023-06-26T12:43:29;6.05;;;1.40;;
55879;SDS011;41802;51.564;-1.838;2023-06-26T12:45:57;5.83;;;1.37;;
55879;SDS011;41802;51.564;-1.838;2023-06-26T12:48:36;8.68;;;2.20;;
55879;SDS011;41802;51.564;-1.838;2023-06-26T12:51:13;5.30;;;1.30;;
55879;SDS011;41802;51.564;-1.838;2023-06-26T12:53:42;6.90;;;1.65;;
55879;SDS011;41802;51.564;-1.838;2023-06-26T12:56:10;5.22;;;1.65;;
55879;SDS011;41802;51.564;-1.838;2023-06-26T12:58:39;5.00;;;1.63;;
55879;SDS011;41802;51.564;-1.838;2023-06-26T13:01:07;5.68;;;1.70;;
55879;SDS011;41802;51.564;-1.838;2023-06-26T13:03:41;5.22;;;1.70;;
55879;SDS011;41802;51.564;-1.838;2023-06-26T13:06:09;6.15;;;1.67;;
55879;SDS011;41802;51.564;-1.838;2023-06-26T13:08:39;6.47;;;2.10;;
55879;SDS011;41802;51.564;-1.838;2023-06-26T13:11:07;6.50;;;1.80;;
55879;SDS011;41802;51.564;-1.838;2023-06-26T13:13:35;6.15;;;1.75;;
55879;SDS011;41802;51.564;-1.838;2023-06-26T13:16:04;5.47;;;1.92;;
55879;SDS011;41802;51.564;-1.838;2023-06-26T13:18:37;5.47;;;1.55;;
55879;SDS011;41802;51.564;-1.838;2023-06-26T13:21:04;6.47;;;1.67;;
55879;SDS011;41802;51.564;-1.838;2023-06-26T13:23:32;6.90;;;1.17;;
55879;SDS011;41802;51.564;-1.838;2023-06-26T13:26:00;5.82;;;1.48;;
55879;SDS011;41802;51.564;-1.838;2023-06-26T13:28:28;4.88;;;1.45;;
55879;SDS011;41802;51.564;-1.838;2023-06-26T13:30:56;4.70;;;1.38;;
55879;SDS011;41802;51.564;-1.838;2023-06-26T13:33:26;7.10;;;1.30;;
55879;SDS011;41802;51.564;-1.838;2023-06-26T13:35:53;5.63;;;1.60;;
55879;SDS011;41802;51.564;-1.838;2023-06-26T13:38:21;8.00;;;1.58;;
55879;SDS011;41802;51.564;-1.838;2023-06-26T13:40:51;5.93;;;1.92;;
55879;SDS011;41802;51.564;-1.838;2023-06-26T13:43:20;5.80;;;1.38;;
55879;SDS011;41802;51.564;-1.838;2023-06-26T13:45:48;5.63;;;1.77;;
55879;SDS011;41802;51.564;-1.838;2023-06-26T13:48:16;6.13;;;1.50;;
55879;SDS011;41802;51.564;-1.838;2023-06-26T13:50:47;7.15;;;1.38;;
55879;SDS011;41802;51.564;-1.838;2023-06-26T13:53:20;6.63;;;1.77;;
55879;SDS011;41802;51.564;-1.838;2023-06-26T13:55:48;7.53;;;2.10;;
55879;SDS011;41802;51.564;-1.838;2023-06-26T13:58:17;6.85;;;1.85;;
55879;SDS011;41802;51.564;-1.838;2023-06-26T14:00:45;6.37;;;1.77;;
55879;SDS011;41802;51.564;-1.838;2023-06-26T14:03:16;5.72;;;1.20;;
55879;SDS011;41802;51.564;-1.838;2023-06-26T14:05:46;4.40;;;1.33;;
55879;SDS011;41802;51.564;-1.838;2023-06-26T14:08:14;10.13;;;1.67;;
55879;SDS011;41802;51.564;-1.838;2023-06-26T14:10:42;7.03;;;1.80;;
55879;SDS011;41802;51.564;-1.838;2023-06-26T14:13:10;5.70;;;1.70;;
55879;SDS011;41802;51.564;-1.838;2023-06-26T14:15:42;6.90;;;1.42;;
55879;SDS011;41802;51.564;-1.838;2023-06-26T14:18:09;7.65;;;1.58;;
55879;SDS011;41802;51.564;-1.838;2023-06-26T14:20:37;8.43;;;1.70;;
55879;SDS011;41802;51.564;-1.838;2023-06-26T14:23:08;10.27;;;1.90;;
55879;SDS011;41802;51.564;-1.838;2023-06-26T14:25:36;6.57;;;1.90;;
55879;SDS011;41802;51.564;-1.838;2023-06-26T14:28:03;8.82;;;2.20;;
55879;SDS011;41802;51.564;-1.838;2023-06-26T14:30:49;6.50;;;1.70;;
55879;SDS011;41802;51.564;-1.838;2023-06-26T14:33:16;6.28;;;1.45;;
55879;SDS011;41802;51.564;-1.838;2023-06-26T14:35:44;8.63;;;2.00;;
55879;SDS011;41802;51.564;-1.838;2023-06-26T14:38:16;7.27;;;1.77;;
55879;SDS011;41802;51.564;-1.838;2023-06-26T14:40:43;12.20;;;2.15;;
55879;SDS011;41802;51.564;-1.838;2023-06-26T14:43:11;6.88;;;1.70;;
55879;SDS011;41802;51.564;-1.838;2023-06-26T14:45:41;6.18;;;1.73;;